D/T METAR WX W/DIR W/SPE G/SPE TEMP DEWP
25/02/20 15:20 EGNX 251520Z 24011KT 9999 SCT028 06/M00 Q0994 WSW (240°) 12.7mph 6°C 0°C
25/02/20 14:50 EGNX 251450Z 24014KT 9999 SCT029 06/00 Q0994 WSW (240°) 16.1mph 6°C 0°C
25/02/20 14:20 EGNX 251420Z 25020KT 9999 SCT024 07/01 Q0994 WSW (250°) 23.0mph 7°C 1°C
25/02/20 13:50 EGNX 251350Z 24014KT 9999 SCT026 07/01 Q0995 WSW (240°) 16.1mph 7°C 1°C
25/02/20 13:20 EGNX 251320Z 23015KT 9999 SCT020 06/02 Q0995 SW (230°) 17.3mph 6°C 2°C
25/02/20 12:50 EGNX 251250Z 24019KT 9000 -SHRA SCT015 BKN025CB 05/01 Q0996 -SHRA WSW (240°) 21.9mph 5°C 1°C
25/02/20 12:20 EGNX 251220Z 25016KT 9999 VCSH FEW020 BKN035 06/M00 Q0996 VCSH WSW (250°) 18.4mph 6°C 0°C
25/02/20 11:50 EGNX 251150Z 25021KT 9999 BKN033 07/00 Q0997 WSW (250°) 24.2mph 7°C 0°C
25/02/20 11:20 EGNX 251120Z 25021KT 9999 FEW015 SCT026 06/M00 Q0997 WSW (250°) 24.2mph 6°C 0°C
25/02/20 10:50 EGNX 251050Z 25021KT 9999 FEW015 06/M00 Q0997 WSW (250°) 24.2mph 6°C 0°C
25/02/20 10:20 EGNX 251020Z 25022KT 9999 FEW015 06/00 Q0997 WSW (250°) 25.3mph 6°C 0°C
25/02/20 09:50 EGNX 250950Z 24020KT 9999 FEW015 05/01 Q0997 WSW (240°) 23.0mph 5°C 1°C
25/02/20 09:20 EGNX 250920Z 24017KT 9999 FEW045 05/02 Q0998 WSW (240°) 19.6mph 5°C 2°C
25/02/20 08:50 EGNX 250850Z 23015KT 9999 FEW047 04/01 Q0998 SW (230°) 17.3mph 4°C 1°C
25/02/20 08:20 EGNX 250820Z 23014KT 9999 FEW015 04/01 Q0998 SW (230°) 16.1mph 4°C 1°C
25/02/20 07:50 EGNX 250750Z 23015KT 9999 SCT020 03/01 Q0998 SW (230°) 17.3mph 3°C 1°C
25/02/20 07:20 EGNX 250720Z 23014KT 9999 FEW020 03/01 Q0998 SW (230°) 16.1mph 3°C 1°C
25/02/20 06:50 EGNX 250650Z 22014KT 9999 -RA SCT020 SCT035 03/01 Q0999 -RA SW (220°) 16.1mph 3°C 1°C
25/02/20 06:20 EGNX 250620Z 23015KT 9999 -SHRA FEW038 03/01 Q0999 -SHRA SW (230°) 17.3mph 3°C 1°C
25/02/20 05:50 EGNX 250550Z 23016KT CAVOK 03/01 Q0999 SW (230°) 18.4mph 3°C 1°C
25/02/20 05:20 EGNX 250520Z 23015KT CAVOK 03/01 Q0999 SW (230°) 17.3mph 3°C 1°C
25/02/20 04:50 EGNX 250450Z 23016KT CAVOK 03/00 Q1000 SW (230°) 18.4mph 3°C 0°C
25/02/20 04:20 EGNX 250420Z 25019KT 9999 FEW040 04/01 Q1000 WSW (250°) 21.9mph 4°C 1°C
25/02/20 03:50 EGNX 250350Z 24018KT 9999 VCSH FEW020 04/00 Q1000 VCSH WSW (240°) 20.7mph 4°C 0°C
25/02/20 03:20 EGNX 250320Z 25015KT CAVOK 04/00 Q1001 WSW (250°) 17.3mph 4°C 0°C
25/02/20 02:50 EGNX 250250Z 25016KT CAVOK 04/00 Q1001 WSW (250°) 18.4mph 4°C 0°C
25/02/20 02:20 EGNX 250220Z 26019KT CAVOK 04/00 Q1001 W (260°) 21.9mph 4°C 0°C
25/02/20 01:50 EGNX 250150Z 25018KT CAVOK 04/01 Q1001 WSW (250°) 20.7mph 4°C 1°C
25/02/20 01:20 EGNX 250120Z 25018KT CAVOK 04/01 Q1002 WSW (250°) 20.7mph 4°C 1°C
25/02/20 00:50 EGNX 250050Z 25015KT 9999 SCT030 05/01 Q1002 WSW (250°) 17.3mph 5°C 1°C
25/02/20 00:20 EGNX 250020Z 24015KT 9999 SCT035 05/01 Q1002 WSW (240°) 17.3mph 5°C 1°C
24/02/20 23:50 EGNX 242350Z 26018KT CAVOK 05/01 Q1002 W (260°) 20.7mph 5°C 1°C
24/02/20 23:20 EGNX 242320Z 26020KT CAVOK 05/01 Q1001 W (260°) 23.0mph 5°C 1°C
24/02/20 22:50 EGNX 242250Z 25021KT CAVOK 06/01 Q1001 WSW (250°) 24.2mph 6°C 1°C
24/02/20 22:20 EGNX 242220Z 25022KT CAVOK 06/01 Q1001 WSW (250°) 25.3mph 6°C 1°C
24/02/20 21:50 EGNX 242150Z 25021KT CAVOK 06/01 Q1002 WSW (250°) 24.2mph 6°C 1°C
24/02/20 21:20 EGNX 242120Z 25019KT 9999 FEW042 06/01 Q1002 WSW (250°) 21.9mph 6°C 1°C
24/02/20 20:50 EGNX 242050Z 24018KT 9999 FEW042 06/01 Q1002 WSW (240°) 20.7mph 6°C 1°C
24/02/20 20:20 EGNX 242020Z 25020KT 9999 FEW030 07/01 Q1002 WSW (250°) 23.0mph 7°C 1°C
24/02/20 19:50 EGNX 241950Z 25018KT 9999 BKN048 07/01 Q1002 WSW (250°) 20.7mph 7°C 1°C
24/02/20 19:20 EGNX 241920Z 26020KT 9999 BKN044 07/01 Q1002 W (260°) 23.0mph 7°C 1°C
24/02/20 18:50 EGNX 241850Z 27019G29KT 9999 BKN042 08/02 Q1002 W (270°) 21.9mph 33.4mph 8°C 2°C
24/02/20 18:20 EGNX 241820Z 27028KT 9999 SCT030 08/02 Q1001 W (270°) 32.2mph 8°C 2°C
24/02/20 17:50 EGNX 241750Z 26026G38KT 9999 SCT035 SCT045 09/04 Q1000 W (260°) 29.9mph 43.7mph 9°C 4°C
24/02/20 17:20 EGNX 241720Z 26024KT 9999 BKN039 10/04 Q1000 W (260°) 27.6mph 10°C 4°C
24/02/20 16:50 EGNX 241650Z 25026KT 9999 SCT030 11/05 Q0999 WSW (250°) 29.9mph 11°C 5°C
24/02/20 16:20 EGNX 241620Z 25025KT 9999 SCT028 BKN035 11/06 Q0999 WSW (250°) 28.8mph 11°C 6°C
24/02/20 15:50 EGNX 241550Z 25023KT 9999 SCT030 BKN040 12/07 Q0999 WSW (250°) 26.5mph 12°C 7°C